createdAt,value
2022-11-24T00:01:16.309Z,95662.91
2022-11-24T00:03:45.563Z,95655.25
2022-11-24T00:06:15.326Z,95666.13
2022-11-24T00:08:45.589Z,95671.41
2022-11-24T00:11:16.467Z,95686.72
2022-11-24T00:13:44.369Z,95683.50
2022-11-24T00:16:16.442Z,95683.06
2022-11-24T00:18:46.113Z,95686.75
2022-11-24T00:21:14.458Z,95691.38
2022-11-24T00:23:41.458Z,95693.38
2022-11-24T00:26:17.949Z,95694.19
2022-11-24T00:28:48.063Z,95698.03
2022-11-24T00:31:31.026Z,95697.25
2022-11-24T00:34:01.890Z,95700.44
2022-11-24T00:36:31.379Z,95704.09
2022-11-24T00:39:01.669Z,95712.53
2022-11-24T00:41:29.837Z,95709.16
2022-11-24T00:43:57.884Z,95714.78
2022-11-24T00:46:25.801Z,95731.53
2022-11-24T00:48:53.857Z,95723.06
2022-11-24T00:51:24.614Z,95736.75
2022-11-24T00:53:51.465Z,95742.03
2022-11-24T00:56:18.293Z,95742.03
2022-11-24T00:58:45.294Z,95760.16
2022-11-24T01:01:27.815Z,95771.63
2022-11-24T01:03:55.752Z,95771.06
2022-11-24T01:06:27.819Z,95772.06
2022-11-24T01:08:56.763Z,95777.47
2022-11-24T01:11:55.646Z,95775.69
2022-11-24T01:14:24.539Z,95781.13
2022-11-24T01:16:51.497Z,95775.28
2022-11-24T01:19:18.888Z,95785.53
2022-11-24T01:21:46.280Z,95781.84
2022-11-24T01:24:14.089Z,95793.63
2022-11-24T01:26:41.110Z,95796.78
2022-11-24T01:29:09.988Z,95807.25
2022-11-24T01:31:37.101Z,95808.47
2022-11-24T01:34:04.002Z,95808.84
2022-11-24T01:36:30.860Z,95806.88
2022-11-24T01:38:57.626Z,95807.25
2022-11-24T01:41:26.586Z,95819.78
2022-11-24T01:43:55.542Z,95828.63
2022-11-24T01:46:36.197Z,95830.44
2022-11-24T01:49:18.279Z,95839.13
2022-11-24T01:52:26.089Z,95844.34
2022-11-24T01:54:57.749Z,95841.94
2022-11-24T01:57:35.746Z,95843.50
2022-11-24T02:00:10.668Z,95847.06
2022-11-24T02:02:37.676Z,95847.56
2022-11-24T02:05:11.337Z,95841.94
2022-11-24T02:07:38.443Z,95844.22
2022-11-24T02:10:16.399Z,95859.72
2022-11-24T02:12:47.012Z,95852.84
2022-11-24T02:15:18.243Z,95851.44
2022-11-24T02:17:45.095Z,95866.94
2022-11-24T02:20:13.142Z,95867.31
2022-11-24T02:23:22.654Z,95872.63
2022-11-24T02:26:02.751Z,95874.56
2022-11-24T02:28:30.843Z,95881.00
2022-11-24T02:31:00.199Z,95880.22
2022-11-24T02:33:27.923Z,95883.53
2022-11-24T02:35:54.913Z,95892.34
2022-11-24T02:38:33.563Z,95886.84
2022-11-24T02:41:05.772Z,95883.81
2022-11-24T02:43:39.924Z,95889.41
2022-11-24T02:46:06.947Z,95890.63
2022-11-24T02:48:33.839Z,95887.34
2022-11-24T02:51:00.688Z,95891.34
2022-11-24T02:53:27.615Z,95902.25
2022-11-24T02:55:54.720Z,95895.88
2022-11-24T02:58:21.757Z,95910.81
2022-11-24T03:00:48.950Z,95907.44
2022-11-24T03:03:15.852Z,95901.09
2022-11-24T03:05:42.684Z,95910.44
2022-11-24T03:08:09.446Z,95910.44
2022-11-24T03:10:36.292Z,95906.75
2022-11-24T03:13:03.087Z,95914.38
2022-11-24T03:15:30.008Z,95913.97
2022-11-24T03:17:56.935Z,95921.50
2022-11-24T03:20:25.280Z,95921.28
2022-11-24T03:22:52.453Z,95915.53
2022-11-24T03:25:19.503Z,95922.00
2022-11-24T03:27:46.992Z,95917.16
2022-11-24T03:30:14.671Z,95910.22
2022-11-24T03:32:42.009Z,95914.63
2022-11-24T03:35:09.480Z,95912.28
2022-11-24T03:37:36.262Z,95925.22
2022-11-24T03:40:03.253Z,95946.22
2022-11-24T03:42:30.059Z,95950.00
2022-11-24T03:44:56.892Z,95929.84
2022-11-24T03:47:23.700Z,95944.38
2022-11-24T03:49:50.525Z,95948.50
2022-11-24T03:52:17.348Z,95949.28
2022-11-24T03:54:44.221Z,95942.94
2022-11-24T03:57:11.033Z,95957.22
2022-11-24T03:59:37.873Z,95950.63
2022-11-24T04:02:05.098Z,95954.50
2022-11-24T04:04:32.196Z,95954.06
2022-11-24T04:06:59.477Z,95957.59
2022-11-24T04:09:26.279Z,95953.97
2022-11-24T04:12:11.416Z,95956.66
2022-11-24T04:14:38.386Z,95962.69
2022-11-24T04:17:05.240Z,95959.88
2022-11-24T04:19:32.031Z,95962.31
2022-11-24T04:21:58.808Z,95951.81
2022-11-24T04:24:25.653Z,95965.75
2022-11-24T04:26:52.419Z,95970.34
2022-11-24T04:29:19.182Z,95971.13
2022-11-24T04:31:46.030Z,95981.34
2022-11-24T04:34:12.899Z,95976.03
2022-11-24T04:36:40.920Z,95973.59
2022-11-24T04:39:23.540Z,95984.84
2022-11-24T04:41:52.986Z,95992.56
2022-11-24T04:44:19.762Z,95988.00
2022-11-24T04:46:46.624Z,95985.31
2022-11-24T04:49:13.558Z,95985.41
2022-11-24T04:51:41.247Z,95992.00
2022-11-24T04:54:11.999Z,95994.25
2022-11-24T04:56:40.276Z,96002.28
2022-11-24T04:59:08.659Z,95994.63
2022-11-24T05:01:35.846Z,96003.50
2022-11-24T05:04:02.825Z,96011.97
2022-11-24T05:06:29.891Z,96009.59
2022-11-24T05:08:56.708Z,96004.34
2022-11-24T05:11:23.523Z,96013.19
2022-11-24T05:13:50.397Z,96016.81
2022-11-24T05:16:17.245Z,96019.78
2022-11-24T05:18:44.242Z,96021.28
2022-11-24T05:21:11.047Z,96022.06
2022-11-24T05:23:37.927Z,96016.44
2022-11-24T05:26:05.364Z,96026.31
2022-11-24T05:28:32.459Z,96024.53
2022-11-24T05:31:01.692Z,96022.13
2022-11-24T05:33:30.009Z,96030.63
2022-11-24T05:36:02.164Z,96042.97
2022-11-24T05:38:30.112Z,96045.91
2022-11-24T05:41:04.846Z,96049.09
2022-11-24T05:43:31.866Z,96062.38
2022-11-24T05:46:00.505Z,96051.34
2022-11-24T05:48:28.732Z,96055.13
2022-11-24T05:50:57.528Z,96054.09
2022-11-24T05:53:26.254Z,96063.16
2022-11-24T05:55:53.381Z,96066.84
2022-11-24T05:58:20.253Z,96068.50
2022-11-24T06:00:47.156Z,96060.44
2022-11-24T06:03:14.133Z,96058.56
2022-11-24T06:05:46.742Z,96073.03
2022-11-24T06:08:14.294Z,96062.53
2022-11-24T06:10:41.455Z,96080.19
2022-11-24T06:13:08.713Z,96089.53
2022-11-24T06:15:37.619Z,96085.03
2022-11-24T06:18:04.539Z,96090.81
2022-11-24T06:20:32.901Z,96087.84
2022-11-24T06:23:01.035Z,96102.38
2022-11-24T06:25:29.384Z,96096.75
2022-11-24T06:27:56.316Z,96092.97
2022-11-24T06:30:23.258Z,96093.41
2022-11-24T06:32:54.638Z,96096.63
2022-11-24T06:35:21.445Z,96093.25
2022-11-24T06:37:48.283Z,96105.69
2022-11-24T06:40:15.248Z,96101.84
2022-11-24T06:42:42.087Z,96103.78
2022-11-24T06:45:09.893Z,96104.56
2022-11-24T06:47:37.373Z,96095.13
2022-11-24T06:50:05.448Z,96103.59
2022-11-24T06:52:32.256Z,96103.69
2022-11-24T06:54:59.104Z,96104.09
2022-11-24T06:57:27.396Z,96109.25
2022-11-24T06:59:54.389Z,96104.63
2022-11-24T07:02:21.206Z,96105.38
2022-11-24T07:04:48.049Z,96112.59
2022-11-24T07:07:14.848Z,96111.13
2022-11-24T07:09:41.801Z,96122.88
2022-11-24T07:12:08.584Z,96110.31
2022-11-24T07:14:35.704Z,96123.06
2022-11-24T07:17:04.659Z,96120.38
2022-11-24T07:19:31.867Z,96124.28
2022-11-24T07:21:58.898Z,96125.00
2022-11-24T07:24:25.871Z,96127.72
2022-11-24T07:26:52.719Z,96122.41
2022-11-24T07:29:19.877Z,96126.13
2022-11-24T07:31:46.763Z,96131.66
2022-11-24T07:34:14.816Z,96127.75
2022-11-24T07:36:42.802Z,96132.31
2022-11-24T07:39:09.645Z,96138.97
2022-11-24T07:41:36.451Z,96137.50
2022-11-24T07:44:03.456Z,96134.44
2022-11-24T07:46:30.279Z,96146.16
2022-11-24T07:48:57.116Z,96140.97
2022-11-24T07:51:24.127Z,96138.94
2022-11-24T07:53:51.018Z,96138.06
2022-11-24T07:56:17.803Z,96134.41
2022-11-24T07:58:49.799Z,96135.03
2022-11-24T08:01:19.950Z,96129.97
2022-11-24T08:03:47.337Z,96138.75
2022-11-24T08:06:25.102Z,96133.47
2022-11-24T08:08:52.201Z,96130.16
2022-11-24T08:11:19.139Z,96139.16
2022-11-24T08:13:46.135Z,96144.34
2022-11-24T08:16:16.001Z,96134.78
2022-11-24T08:18:44.265Z,96136.63
2022-11-24T08:21:14.668Z,96150.97
2022-11-24T08:23:42.324Z,96140.38
2022-11-24T08:26:15.831Z,96142.38
2022-11-24T08:28:44.629Z,96148.28
2022-11-24T08:31:18.461Z,96143.34
2022-11-24T08:33:46.150Z,96146.84
2022-11-24T08:36:17.402Z,96148.81
2022-11-24T08:38:45.459Z,96153.00
2022-11-24T08:41:15.029Z,96151.50
2022-11-24T08:43:42.457Z,96155.88
2022-11-24T08:46:13.633Z,96157.97
2022-11-24T08:48:41.517Z,96159.47
2022-11-24T08:51:12.190Z,96162.59
2022-11-24T08:53:40.061Z,96158.69
2022-11-24T08:56:08.849Z,96150.13
2022-11-24T08:58:36.194Z,96137.81
2022-11-24T09:01:11.372Z,96141.78
2022-11-24T09:03:41.265Z,96140.28
2022-11-24T09:06:11.753Z,96132.16
2022-11-24T09:08:38.865Z,96135.47
2022-11-24T09:11:12.286Z,96133.53
2022-11-24T09:13:40.437Z,96136.59
2022-11-24T09:16:13.270Z,96139.03
2022-11-24T09:18:40.371Z,96140.00
2022-11-24T09:21:12.206Z,96136.72
2022-11-24T09:23:40.507Z,96143.09
2022-11-24T09:26:10.759Z,96145.97
2022-11-24T09:28:37.861Z,96143.53
2022-11-24T09:31:08.208Z,96148.13
2022-11-24T09:33:36.035Z,96151.63
2022-11-24T09:36:03.513Z,96150.72
2022-11-24T09:38:30.536Z,96147.19
2022-11-24T09:41:34.579Z,96144.91
2022-11-24T09:44:23.148Z,96149.16
2022-11-24T09:47:17.023Z,96148.59
2022-11-24T09:50:04.227Z,96144.53
2022-11-24T09:53:01.161Z,96145.75
2022-11-24T09:55:46.753Z,96149.84
2022-11-24T09:58:18.856Z,96151.09
2022-11-24T10:00:48.625Z,96141.47
2022-11-24T10:03:32.279Z,96156.25
2022-11-24T10:06:04.558Z,96150.34
2022-11-24T10:09:07.958Z,96159.22
2022-11-24T10:12:18.533Z,96168.47
2022-11-24T10:15:12.036Z,96165.13
2022-11-24T10:17:45.455Z,96167.75
2022-11-24T10:20:27.592Z,96165.53
2022-11-24T10:23:09.352Z,96172.44
2022-11-24T10:25:58.715Z,96170.75
2022-11-24T10:28:56.918Z,96171.28
2022-11-24T10:31:33.123Z,96189.59
2022-11-24T10:34:19.358Z,96174.47
2022-11-24T10:37:10.672Z,96183.84
2022-11-24T10:39:48.253Z,96188.31
2022-11-24T10:42:36.963Z,96198.03
2022-11-24T10:45:13.993Z,96200.44
2022-11-24T10:47:42.689Z,96210.06
2022-11-24T10:50:27.394Z,96216.53
2022-11-24T10:53:23.391Z,96218.13
2022-11-24T10:55:56.377Z,96227.91
2022-11-24T10:58:37.644Z,96227.59
2022-11-24T11:01:14.478Z,96223.19
2022-11-24T11:03:53.027Z,96226.06
2022-11-24T11:06:31.510Z,96228.41
2022-11-24T11:09:07.537Z,96234.28
2022-11-24T11:11:36.521Z,96233.47
2022-11-24T11:14:06.961Z,96237.06
2022-11-24T11:16:46.108Z,96218.25
2022-11-24T11:19:55.441Z,96232.47
2022-11-24T11:22:36.927Z,96228.03
2022-11-24T11:25:07.314Z,96234.59
2022-11-24T11:27:34.249Z,96233.25
2022-11-24T11:36:13.596Z,96226.75
2022-11-24T11:38:41.703Z,96226.66
2022-11-24T11:41:20.718Z,96227.13
2022-11-24T11:43:57.504Z,96250.84
2022-11-24T11:46:26.249Z,96239.72
2022-11-24T11:48:53.139Z,96230.00
2022-11-24T11:51:38.240Z,96233.63
2022-11-24T11:54:38.083Z,96224.16
2022-11-24T11:57:17.151Z,96213.56
2022-11-24T12:00:09.598Z,96223.81
2022-11-24T12:03:05.477Z,96221.25
2022-11-24T12:06:27.973Z,96224.44
2022-11-24T12:09:27.238Z,96214.72
2022-11-24T12:12:44.504Z,96235.03
2022-11-24T12:15:51.254Z,96233.44
2022-11-24T12:19:14.813Z,96233.50
2022-11-24T12:22:20.727Z,96245.56
2022-11-24T12:24:58.205Z,96244.38
2022-11-24T12:28:26.333Z,96257.06
2022-11-24T12:31:07.112Z,96261.91
2022-11-24T12:34:03.826Z,96267.44
2022-11-24T12:36:56.311Z,96267.00
2022-11-24T12:39:45.786Z,96268.84
2022-11-24T12:42:36.009Z,96262.75
2022-11-24T12:45:17.087Z,96271.69
2022-11-24T12:47:52.328Z,96274.72
2022-11-24T12:50:27.736Z,96258.69
2022-11-24T12:53:06.507Z,96266.44
2022-11-24T12:55:34.072Z,96266.63
2022-11-24T12:58:17.491Z,96272.91
2022-11-24T13:00:58.743Z,96272.72
2022-11-24T13:03:43.233Z,96273.53
2022-11-24T13:06:21.861Z,96273.91
2022-11-24T13:08:49.168Z,96267.44
2022-11-24T13:11:22.010Z,96287.06
2022-11-24T13:14:00.277Z,96278.16
2022-11-24T13:16:37.059Z,96282.13
2022-11-24T13:19:33.690Z,96285.38
2022-11-24T13:22:07.673Z,96284.16
2022-11-24T13:24:37.449Z,96294.25
2022-11-24T13:27:13.703Z,96295.38
2022-11-24T13:29:43.201Z,96295.13
2022-11-24T13:32:11.653Z,96301.75
2022-11-24T13:34:42.676Z,96303.59
2022-11-24T13:37:34.449Z,96303.44
2022-11-24T13:40:11.872Z,96304.84
2022-11-24T13:42:57.659Z,96299.50
2022-11-24T13:45:39.799Z,96301.94
2022-11-24T13:48:19.388Z,96301.47
2022-11-24T13:50:58.119Z,96306.88
2022-11-24T13:53:47.738Z,96316.34
2022-11-24T13:56:15.032Z,96313.84
2022-11-24T13:58:58.655Z,96306.38
2022-11-24T14:01:36.178Z,96322.13
2022-11-24T14:04:34.437Z,96323.69
2022-11-24T14:07:08.709Z,96327.69
2022-11-24T14:09:50.363Z,96325.59
2022-11-24T14:12:24.847Z,96330.72
2022-11-24T14:14:56.850Z,96333.44
2022-11-24T14:17:28.117Z,96329.09
2022-11-24T14:19:58.455Z,96322.50
2022-11-24T14:22:40.640Z,96325.13
2022-11-24T14:25:32.251Z,96321.25
2022-11-24T14:28:00.527Z,96324.16
2022-11-24T14:30:27.581Z,96326.94
2022-11-24T14:33:09.593Z,96333.25
2022-11-24T14:35:43.797Z,96344.97
2022-11-24T14:38:12.517Z,96332.38
2022-11-24T14:40:55.052Z,96332.69
2022-11-24T14:43:29.787Z,96341.94
2022-11-24T14:45:59.961Z,96337.81
2022-11-24T14:48:36.286Z,96335.44
2022-11-24T14:51:28.930Z,96340.19
2022-11-24T14:54:01.013Z,96340.97
2022-11-24T14:56:37.013Z,96345.00
2022-11-24T14:59:21.115Z,96342.28
2022-11-24T15:01:48.076Z,96343.91
2022-11-24T15:05:00.651Z,96351.97
2022-11-24T15:07:29.086Z,96345.31
2022-11-24T15:10:01.841Z,96356.59
2022-11-24T15:12:39.200Z,96360.56
2022-11-24T15:15:32.147Z,96363.75
2022-11-24T15:18:01.755Z,96360.81
2022-11-24T15:20:42.179Z,96366.38
2022-11-24T15:23:28.053Z,96369.50
2022-11-24T15:25:57.233Z,96386.31
2022-11-24T15:28:27.776Z,96380.16
2022-11-24T15:31:15.488Z,96377.63
2022-11-24T15:33:42.442Z,96375.50
2022-11-24T15:36:09.241Z,96382.22
2022-11-24T15:38:36.078Z,96396.50
2022-11-24T15:41:20.863Z,96395.50
2022-11-24T15:43:47.722Z,96399.72
2022-11-24T15:46:14.600Z,96402.56
2022-11-24T15:48:41.493Z,96395.06
2022-11-24T15:51:13.407Z,96402.03
2022-11-24T15:53:48.457Z,96404.63
2022-11-24T15:56:31.032Z,96412.56
2022-11-24T15:58:57.955Z,96424.03
2022-11-24T16:01:29.705Z,96427.78
2022-11-24T16:03:56.602Z,96440.38
2022-11-24T16:06:25.073Z,96438.66
2022-11-24T16:08:53.858Z,96437.94
2022-11-24T16:11:21.478Z,96431.34
2022-11-24T16:13:52.303Z,96440.56
2022-11-24T16:16:20.821Z,96442.19
2022-11-24T16:18:47.730Z,96442.19
2022-11-24T16:21:14.612Z,96437.31
2022-11-24T16:23:41.532Z,96429.19
2022-11-24T16:26:09.392Z,96433.50
2022-11-24T16:28:36.207Z,96439.06
2022-11-24T16:31:03.017Z,96442.72
2022-11-24T16:33:34.799Z,96435.84
2022-11-24T16:36:01.631Z,96437.81
2022-11-24T16:38:28.503Z,96443.41
2022-11-24T16:40:58.611Z,96447.53
2022-11-24T16:43:25.528Z,96445.63
2022-11-24T16:46:15.656Z,96445.53
2022-11-24T16:48:42.777Z,96447.03
2022-11-24T16:51:11.141Z,96449.06
2022-11-24T16:53:38.256Z,96452.97
2022-11-24T16:56:05.560Z,96447.03
2022-11-24T16:58:33.016Z,96455.88
2022-11-24T17:01:08.781Z,96460.38
2022-11-24T17:03:38.675Z,96447.38
2022-11-24T17:06:08.219Z,96446.81
2022-11-24T17:08:37.105Z,96459.47
2022-11-24T17:11:10.118Z,96447.28
2022-11-24T17:13:37.763Z,96453.22
2022-11-24T17:16:06.838Z,96453.69
2022-11-24T17:18:34.596Z,96451.06
2022-11-24T17:21:07.885Z,96451.59
2022-11-24T17:23:36.772Z,96451.59
2022-11-24T17:26:10.643Z,96456.00
2022-11-24T17:28:38.486Z,96466.47
2022-11-24T17:31:32.156Z,96460.44
2022-11-24T17:34:00.708Z,96462.69
2022-11-24T17:36:30.475Z,96458.09
2022-11-24T17:38:59.956Z,96457.66
2022-11-24T17:41:27.827Z,96461.56
2022-11-24T17:43:56.649Z,96463.09
2022-11-24T17:46:25.680Z,96459.53
2022-11-24T17:48:52.887Z,96474.94
2022-11-24T17:51:22.056Z,96465.81
2022-11-24T17:53:52.611Z,96461.59
2022-11-24T17:56:25.632Z,96467.50
2022-11-24T17:58:59.137Z,96461.03
2022-11-24T18:01:28.561Z,96463.66
2022-11-24T18:03:55.746Z,96466.97
2022-11-24T18:06:25.284Z,96462.41
2022-11-24T18:08:54.011Z,96463.88
2022-11-24T18:11:31.483Z,96466.28
2022-11-24T18:14:02.515Z,96466.28
2022-11-24T18:16:32.436Z,96470.50
2022-11-24T18:19:10.759Z,96465.63
2022-11-24T18:21:40.423Z,96480.31
2022-11-24T18:24:09.294Z,96473.28
2022-11-24T18:26:36.164Z,96465.63
2022-11-24T18:29:03.382Z,96463.97
2022-11-24T18:31:31.410Z,96463.66
2022-11-24T18:33:59.254Z,96467.41
2022-11-24T18:36:30.385Z,96465.63
2022-11-24T18:39:00.455Z,96478.03
2022-11-24T18:41:27.466Z,96467.25
2022-11-24T18:43:54.298Z,96475.09
2022-11-24T18:46:21.273Z,96472.84
2022-11-24T18:48:48.270Z,96467.28
2022-11-24T18:51:15.200Z,96462.59
2022-11-24T18:53:46.625Z,96472.31
2022-11-24T18:56:16.279Z,96474.31
2022-11-24T18:58:44.000Z,96471.72
2022-11-24T19:01:20.060Z,96468.81
2022-11-24T19:03:54.021Z,96477.16
2022-11-24T19:06:28.861Z,96476.66
2022-11-24T19:08:56.169Z,96471.44
2022-11-24T19:11:33.626Z,96482.22
2022-11-24T19:14:02.391Z,96476.03
2022-11-24T19:16:29.980Z,96477.00
2022-11-24T19:18:59.928Z,96480.44
2022-11-24T19:21:28.913Z,96483.22
2022-11-24T19:24:01.264Z,96476.66
2022-11-24T19:26:32.232Z,96484.66
2022-11-24T19:28:59.110Z,96482.22
2022-11-24T19:31:26.727Z,96468.22
2022-11-24T19:33:54.788Z,96475.38
2022-11-24T19:36:23.215Z,96473.59
2022-11-24T19:38:55.971Z,96474.41
2022-11-24T19:41:27.667Z,96477.00
2022-11-24T19:43:55.022Z,96476.69
2022-11-24T19:46:26.199Z,96480.78
2022-11-24T19:49:00.130Z,96481.25
2022-11-24T19:51:37.165Z,96475.06
2022-11-24T19:54:06.513Z,96483.56
2022-11-24T19:56:36.476Z,96487.31
2022-11-24T19:59:06.736Z,96479.97
2022-11-24T20:01:37.910Z,96478.66
2022-11-24T20:04:08.931Z,96483.56
2022-11-24T20:06:39.452Z,96487.13
2022-11-24T20:09:09.468Z,96487.78
2022-11-24T20:11:37.815Z,96491.69
2022-11-24T20:14:06.016Z,96488.75
2022-11-24T20:16:34.743Z,96494.59
2022-11-24T20:19:07.535Z,96497.84
2022-11-24T20:21:36.629Z,96493.56
2022-11-24T20:24:21.848Z,96484.59
2022-11-24T20:26:56.299Z,96492.91
2022-11-24T20:29:23.560Z,96493.88
2022-11-24T20:31:53.814Z,96490.28
2022-11-24T20:34:22.244Z,96498.56
2022-11-24T20:36:49.646Z,96501.66
2022-11-24T20:39:26.958Z,96498.38
2022-11-24T20:41:55.636Z,96499.69
2022-11-24T20:44:24.845Z,96494.19
2022-11-24T20:46:51.654Z,96491.41
2022-11-24T20:49:20.340Z,96497.44
2022-11-24T20:51:48.276Z,96497.31
2022-11-24T20:54:17.882Z,96493.88
2022-11-24T20:56:46.536Z,96490.94
2022-11-24T20:59:17.622Z,96489.63
2022-11-24T21:01:46.424Z,96490.16
2022-11-24T21:04:21.342Z,96489.00
2022-11-24T21:06:48.305Z,96486.06
2022-11-24T21:09:15.135Z,96491.56
2022-11-24T21:11:42.514Z,96484.25
2022-11-24T21:14:10.333Z,96473.34
2022-11-24T21:16:40.083Z,96475.28
2022-11-24T21:19:11.743Z,96482.75
2022-11-24T21:21:40.144Z,96482.25
2022-11-24T21:24:17.681Z,96496.06
2022-11-24T21:26:50.386Z,96487.41
2022-11-24T21:29:19.411Z,96482.69
2022-11-24T21:31:46.308Z,96488.88
2022-11-24T21:34:16.588Z,96478.00
2022-11-24T21:36:44.968Z,96481.06
2022-11-24T21:39:13.863Z,96490.16
2022-11-24T21:41:40.977Z,96499.22
2022-11-24T21:44:08.139Z,96490.53
2022-11-24T21:46:42.459Z,96488.31
2022-11-24T21:49:13.294Z,96485.97
2022-11-24T21:51:40.050Z,96492.63
2022-11-24T21:54:07.058Z,96484.66
2022-11-24T21:56:33.924Z,96484.97
2022-11-24T21:59:00.760Z,96486.59
2022-11-24T22:01:28.788Z,96481.53
2022-11-24T22:03:56.273Z,96488.53
2022-11-24T22:06:23.511Z,96487.69
2022-11-24T22:08:50.327Z,96483.94
2022-11-24T22:11:23.421Z,96483.31
2022-11-24T22:13:51.395Z,96483.31
2022-11-24T22:16:24.362Z,96483.94
2022-11-24T22:18:51.577Z,96482.47
2022-11-24T22:21:29.862Z,96485.56
2022-11-24T22:23:57.393Z,96481.72
2022-11-24T22:26:24.955Z,96489.50
2022-11-24T22:28:53.497Z,96498.56
2022-11-24T22:31:30.388Z,96501.50
2022-11-24T22:33:58.832Z,96498.00
2022-11-24T22:36:30.060Z,96498.91
2022-11-24T22:39:05.683Z,96500.44
2022-11-24T22:41:35.561Z,96506.59
2022-11-24T22:44:02.425Z,96498.00
2022-11-24T22:46:31.191Z,96500.88
2022-11-24T22:49:00.360Z,96495.53
2022-11-24T22:51:32.376Z,96488.97
2022-11-24T22:54:02.609Z,96496.94
2022-11-24T22:56:32.337Z,96484.59
2022-11-24T22:59:01.131Z,96481.19
2022-11-24T23:01:29.988Z,96493.81
2022-11-24T23:03:56.971Z,96496.50
2022-11-24T23:06:26.844Z,96488.78
2022-11-24T23:08:54.683Z,96492.06
2022-11-24T23:11:32.651Z,96496.94
2022-11-24T23:14:04.136Z,96497.88
2022-11-24T23:16:31.136Z,96494.06
2022-11-24T23:18:58.297Z,96499.03
2022-11-24T23:21:31.751Z,96501.41
2022-11-24T23:24:01.056Z,96501.69
2022-11-24T23:26:36.137Z,96491.28
2022-11-24T23:29:04.707Z,96501.69
2022-11-24T23:31:32.472Z,96493.53
2022-11-24T23:34:02.086Z,96495.16
2022-11-24T23:36:29.672Z,96493.53
2022-11-24T23:38:56.913Z,96499.41
2022-11-24T23:41:25.719Z,96499.22
2022-11-24T23:43:53.214Z,96498.84
2022-11-24T23:46:26.081Z,96484.91
2022-11-24T23:48:55.963Z,96484.19
2022-11-24T23:51:26.244Z,96484.53
2022-11-24T23:53:54.053Z,96488.94
2022-11-24T23:56:24.066Z,96490.78
2022-11-24T23:58:51.252Z,96488.06
